Time;durP1;ratioP1;P1;durP2;ratioP2;P2;SDS_P1;SDS_P2;PMS_P1;PMS_P2;Temp;Humidity;BMP_temperature;BMP_pressure;BME280_temperature;BME280_humidity;BME280_pressure;Samples;Min_cycle;Max_cycle;Signal;HPM_P1;HPM_P2
2021/07/02 00:02:19;;;;;;;10.20;2.45;;;;;;;;;;5016524;28;20532;-90
2021/07/02 00:04:53;;;;;;;8.10;2.92;;;;;;;;;;5017544;28;20030;-90
2021/07/02 00:07:19;;;;;;;6.43;4.18;;;;;;;;;;5017391;28;20030;-92
2021/07/02 00:09:44;;;;;;;6.63;1.95;;;;;;;;;;5017678;28;20492;-91
2021/07/02 00:12:10;;;;;;;7.15;4.45;;;;;;;;;;5032842;28;20022;-90
2021/07/02 00:14:36;;;;;;;8.15;2.50;;;;;;;;;;5016101;28;20022;-89
2021/07/02 00:17:02;;;;;;;10.43;4.78;;;;;;;;;;5017193;28;20042;-90
2021/07/02 00:19:30;;;;;;;9.43;1.85;;;;;;;;;;5015953;28;20030;-90
2021/07/02 00:21:56;;;;;;;8.20;2.38;;;;;;;;;;5015760;28;20042;-91
2021/07/02 00:24:22;;;;;;;6.35;1.63;;;;;;;;;;5016082;28;20026;-90
2021/07/02 00:26:48;;;;;;;6.88;2.50;;;;;;;;;;5015922;28;20026;-89
2021/07/02 00:29:13;;;;;;;6.97;2.40;;;;;;;;;;5015439;28;20545;-91
2021/07/02 00:31:39;;;;;;;8.43;1.90;;;;;;;;;;5015822;28;20057;-90
2021/07/02 00:34:05;;;;;;;14.27;4.20;;;;;;;;;;5016211;28;20424;-89
2021/07/02 00:36:30;;;;;;;7.68;1.40;;;;;;;;;;5017187;28;20466;-89
2021/07/02 00:38:56;;;;;;;8.60;3.30;;;;;;;;;;5032273;28;20434;-89
2021/07/02 00:41:22;;;;;;;8.70;2.15;;;;;;;;;;5015701;28;20033;-89
2021/07/02 00:43:53;;;;;;;10.43;2.53;;;;;;;;;;5016449;28;20028;-90
2021/07/02 00:46:20;;;;;;;9.90;4.90;;;;;;;;;;5035469;28;20026;-88
2021/07/02 00:48:46;;;;;;;8.02;3.15;;;;;;;;;;5034650;28;20038;-90
2021/07/02 00:51:12;;;;;;;7.38;1.73;;;;;;;;;;5017390;28;20500;-89
2021/07/02 00:53:41;;;;;;;7.97;1.92;;;;;;;;;;5032043;28;20041;-88
2021/07/02 00:56:11;;;;;;;5.88;2.03;;;;;;;;;;5015279;28;20416;-89
2021/07/02 00:58:52;;;;;;;7.78;3.30;;;;;;;;;;5015322;28;20037;-89
2021/07/02 01:01:19;;;;;;;8.45;1.67;;;;;;;;;;5016610;28;20054;-89
2021/07/02 01:03:47;;;;;;;4.90;1.70;;;;;;;;;;5015088;28;20034;-89
2021/07/02 01:06:18;;;;;;;6.75;1.92;;;;;;;;;;5015155;28;20018;-90
2021/07/02 01:08:46;;;;;;;10.13;2.10;;;;;;;;;;5015298;28;20493;-89
2021/07/02 01:11:13;;;;;;;8.63;1.90;;;;;;;;;;5014419;28;20033;-88
2021/07/02 01:13:41;;;;;;;5.13;1.50;;;;;;;;;;5016223;28;20029;-89
2021/07/02 01:16:07;;;;;;;7.57;2.05;;;;;;;;;;5015158;28;20057;-87
2021/07/02 01:18:32;;;;;;;7.88;2.38;;;;;;;;;;5016371;28;20054;-88
2021/07/02 01:20:58;;;;;;;8.85;3.47;;;;;;;;;;5016241;28;20026;-88
2021/07/02 01:23:26;;;;;;;8.25;2.83;;;;;;;;;;5035973;28;20030;-88
2021/07/02 01:25:54;;;;;;;7.30;1.75;;;;;;;;;;5018182;28;20025;-90
2021/07/02 01:28:38;;;;;;;6.82;1.63;;;;;;;;;;5017919;28;20026;-89
2021/07/02 01:31:03;;;;;;;7.97;1.75;;;;;;;;;;5017767;28;20112;-88
2021/07/02 01:33:32;;;;;;;5.53;1.65;;;;;;;;;;5018144;28;20565;-90
2021/07/02 01:36:07;;;;;;;8.90;4.53;;;;;;;;;;5017577;28;20432;-87
2021/07/02 01:38:34;;;;;;;3.65;1.25;;;;;;;;;;5017606;28;20116;-87
2021/07/02 01:41:00;;;;;;;4.03;1.63;;;;;;;;;;5017613;28;20049;-87
2021/07/02 01:43:26;;;;;;;9.23;3.28;;;;;;;;;;5034266;28;20057;-88
2021/07/02 01:45:53;;;;;;;7.22;3.92;;;;;;;;;;5017942;28;20033;-88
2021/07/02 01:48:19;;;;;;;5.97;2.53;;;;;;;;;;5017453;28;20033;-88
2021/07/02 01:50:45;;;;;;;9.75;4.22;;;;;;;;;;5017884;28;20029;-88
2021/07/02 01:53:11;;;;;;;5.45;2.22;;;;;;;;;;5034105;28;20424;-88
2021/07/02 01:55:36;;;;;;;6.75;4.93;;;;;;;;;;5035434;28;20041;-86
2021/07/02 01:58:02;;;;;;;8.32;2.55;;;;;;;;;;5033797;28;20180;-87
2021/07/02 02:00:28;;;;;;;7.88;2.40;;;;;;;;;;5017156;28;20029;-87
2021/07/02 02:02:54;;;;;;;5.80;1.88;;;;;;;;;;5017407;28;20025;-87
2021/07/02 02:05:19;;;;;;;15.98;5.45;;;;;;;;;;5033728;28;20018;-88
2021/07/02 02:07:45;;;;;;;8.68;3.90;;;;;;;;;;5017153;28;20029;-89
2021/07/02 02:10:11;;;;;;;7.43;2.42;;;;;;;;;;5033562;28;20021;-88
2021/07/02 02:12:43;;;;;;;7.93;2.50;;;;;;;;;;5017390;28;20418;-88
2021/07/02 02:15:09;;;;;;;8.98;5.13;;;;;;;;;;5016900;28;20381;-87
2021/07/02 02:17:35;;;;;;;5.90;1.83;;;;;;;;;;5034690;28;20583;-87
2021/07/02 02:20:03;;;;;;;4.97;2.55;;;;;;;;;;5033571;28;20116;-89
2021/07/02 02:22:29;;;;;;;7.22;2.25;;;;;;;;;;5034059;28;20045;-89
2021/07/02 02:24:55;;;;;;;5.20;2.08;;;;;;;;;;5034578;28;20457;-89
2021/07/02 02:27:20;;;;;;;5.95;1.80;;;;;;;;;;5017451;28;20499;-89
2021/07/02 02:30:08;;;;;;;8.05;5.00;;;;;;;;;;5034737;28;20041;-88
2021/07/02 02:32:38;;;;;;;6.05;2.20;;;;;;;;;;5034739;28;20029;-88
2021/07/02 02:35:04;;;;;;;7.97;4.00;;;;;;;;;;5016641;28;20026;-87
2021/07/02 02:37:29;;;;;;;5.38;1.67;;;;;;;;;;5016556;28;20025;-88
2021/07/02 02:39:55;;;;;;;6.05;1.52;;;;;;;;;;5034499;28;20104;-89
2021/07/02 02:42:20;;;;;;;4.68;1.83;;;;;;;;;;5016530;28;20049;-88
2021/07/02 02:44:46;;;;;;;6.13;3.83;;;;;;;;;;5034275;28;20029;-89
2021/07/02 02:47:12;;;;;;;5.25;3.95;;;;;;;;;;5016670;28;20421;-89
2021/07/02 02:49:37;;;;;;;7.25;1.95;;;;;;;;;;5032756;28;20362;-89
2021/07/02 02:52:03;;;;;;;6.05;5.22;;;;;;;;;;5016614;28;20026;-89
2021/07/02 02:54:29;;;;;;;4.68;1.83;;;;;;;;;;5033985;28;20029;-88
2021/07/02 02:57:04;;;;;;;6.95;4.07;;;;;;;;;;5034416;28;20037;-88
2021/07/02 02:59:36;;;;;;;6.30;2.47;;;;;;;;;;5032966;28;20035;-88
2021/07/02 03:02:06;;;;;;;6.13;2.25;;;;;;;;;;5016269;28;20472;-89
2021/07/02 03:04:34;;;;;;;7.40;2.15;;;;;;;;;;5016242;28;20116;-88
2021/07/02 03:06:59;;;;;;;9.15;2.53;;;;;;;;;;5034060;28;20469;-88
2021/07/02 03:09:25;;;;;;;8.43;3.67;;;;;;;;;;5033812;28;20063;-89
2021/07/02 03:11:51;;;;;;;10.10;5.53;;;;;;;;;;5310273;23;20089;-89
2021/07/02 03:14:18;;;;;;;6.57;1.75;;;;;;;;;;5016412;28;20033;-88
2021/07/02 03:16:44;;;;;;;6.00;1.85;;;;;;;;;;5016288;28;20052;-87
2021/07/02 03:19:10;;;;;;;8.52;2.95;;;;;;;;;;5015970;28;20598;-88
2021/07/02 03:21:36;;;;;;;6.63;2.25;;;;;;;;;;5034420;28;20027;-88
2021/07/02 03:24:01;;;;;;;9.75;2.00;;;;;;;;;;5071635;22;20128;-91
2021/07/02 03:26:45;;;;;;;8.60;5.80;;;;;;;;;;5047673;28;20022;-89
2021/07/02 03:32:11;;;;;;;6.78;1.98;;;;;;;;;;5049988;28;20103;-93
2021/07/02 03:34:49;;;;;;;5.63;2.53;;;;;;;;;;5036517;28;20116;-90
2021/07/02 03:37:16;;;;;;;3.75;1.60;;;;;;;;;;5036101;28;20028;-86
2021/07/02 03:39:47;;;;;;;6.95;2.05;;;;;;;;;;5010920;28;20088;-89
2021/07/02 03:42:13;;;;;;;13.05;5.65;;;;;;;;;;5011857;28;20092;-88
2021/07/02 03:44:49;;;;;;;6.82;4.32;;;;;;;;;;5098844;22;20456;-89
2021/07/02 03:47:21;;;;;;;6.50;2.45;;;;;;;;;;5032507;28;20536;-88
2021/07/02 03:49:46;;;;;;;6.10;4.93;;;;;;;;;;5030587;28;20037;-88
2021/07/02 03:52:12;;;;;;;8.02;2.38;;;;;;;;;;5033477;28;20363;-89
2021/07/02 03:54:41;;;;;;;7.72;2.83;;;;;;;;;;5032392;28;20489;-89
2021/07/02 03:57:19;;;;;;;8.38;6.35;;;;;;;;;;5031978;28;20025;-90
2021/07/02 03:59:51;;;;;;;8.77;2.83;;;;;;;;;;5032013;28;20555;-88
2021/07/02 04:04:47;;;;;;;5.47;2.35;;;;;;;;;;5031677;28;20404;-88
2021/07/02 04:07:13;;;;;;;8.43;2.65;;;;;;;;;;5015281;28;20036;-88
2021/07/02 04:09:45;;;;;;;9.70;4.70;;;;;;;;;;5015163;28;20029;-90
2021/07/02 04:12:13;;;;;;;6.40;2.97;;;;;;;;;;4997149;28;20026;-87
2021/07/02 04:14:44;;;;;;;9.23;4.15;;;;;;;;;;5015038;28;20554;-87
2021/07/02 04:17:10;;;;;;;9.85;3.50;;;;;;;;;;5016315;28;20036;-88
2021/07/02 04:19:39;;;;;;;6.28;2.95;;;;;;;;;;5015843;28;20026;-91
2021/07/02 04:24:44;;;;;;;7.45;2.72;;;;;;;;;;4974930;28;20050;-91
2021/07/02 04:27:12;;;;;;;7.90;5.22;;;;;;;;;;4957288;28;20026;-91
2021/07/02 04:29:39;;;;;;;6.25;2.47;;;;;;;;;;4957604;28;20062;-89
2021/07/02 04:32:05;;;;;;;8.50;3.33;;;;;;;;;;4956548;28;20037;-91
2021/07/02 04:37:10;;;;;;;9.50;7.22;;;;;;;;;;5030105;23;20585;-92
2021/07/02 04:39:51;;;;;;;;;;;;;;;;;;4979553;28;20366;-92
2021/07/02 04:44:47;;;;;;;9.82;3.47;;;;;;;;;;5327162;23;20041;-90
2021/07/02 04:47:13;;;;;;;12.93;7.32;;;;;;;;;;5034021;28;20376;-89
2021/07/02 04:49:39;;;;;;;10.02;4.10;;;;;;;;;;5036370;28;20031;-90
2021/07/02 04:52:05;;;;;;;14.55;5.28;;;;;;;;;;5035872;28;20109;-89
2021/07/02 04:54:30;;;;;;;10.52;5.40;;;;;;;;;;5036306;28;20559;-88
2021/07/02 04:56:56;;;;;;;9.07;4.40;;;;;;;;;;5036050;28;20102;-87
2021/07/02 04:59:28;;;;;;;11.02;5.13;;;;;;;;;;5034908;28;20022;-88
2021/07/02 05:01:54;;;;;;;13.05;4.90;;;;;;;;;;5036615;28;20017;-88
2021/07/02 05:04:22;;;;;;;11.60;5.20;;;;;;;;;;5036597;28;20035;-91
2021/07/02 05:06:48;;;;;;;10.68;6.80;;;;;;;;;;5036877;28;20022;-88
2021/07/02 05:09:14;;;;;;;8.75;3.78;;;;;;;;;;5035299;28;20472;-88
2021/07/02 05:11:40;;;;;;;9.95;4.70;;;;;;;;;;5035389;28;20034;-86
2021/07/02 05:14:08;;;;;;;8.93;4.32;;;;;;;;;;5036416;28;20021;-88
2021/07/02 05:16:34;;;;;;;12.75;5.03;;;;;;;;;;5036100;28;20037;-87
2021/07/02 05:19:00;;;;;;;7.57;3.47;;;;;;;;;;5034640;28;20033;-88
2021/07/02 05:21:26;;;;;;;10.30;4.78;;;;;;;;;;5035861;28;20032;-88
2021/07/02 05:23:51;;;;;;;9.63;3.42;;;;;;;;;;5035087;28;20033;-87
2021/07/02 05:26:17;;;;;;;9.27;5.72;;;;;;;;;;5034610;28;20026;-87
2021/07/02 05:28:43;;;;;;;7.60;3.22;;;;;;;;;;5034600;28;20032;-90
2021/07/02 05:31:08;;;;;;;9.45;6.40;;;;;;;;;;5034398;28;20022;-89
2021/07/02 05:33:34;;;;;;;10.40;3.05;;;;;;;;;;5034726;28;20029;-87
2021/07/02 05:36:00;;;;;;;9.88;3.75;;;;;;;;;;5035551;28;20507;-87
2021/07/02 05:38:28;;;;;;;8.98;5.93;;;;;;;;;;5035541;28;20116;-88
2021/07/02 05:40:56;;;;;;;7.60;3.67;;;;;;;;;;5034247;28;20029;-88
2021/07/02 05:43:23;;;;;;;9.15;3.53;;;;;;;;;;5034045;28;20053;-89
2021/07/02 05:45:49;;;;;;;8.27;4.15;;;;;;;;;;5034475;28;20032;-89
2021/07/02 05:48:19;;;;;;;9.70;3.40;;;;;;;;;;5034051;28;20124;-88
2021/07/02 05:50:48;;;;;;;9.25;6.70;;;;;;;;;;5034817;28;20033;-88
2021/07/02 05:53:20;;;;;;;10.95;5.78;;;;;;;;;;5021265;28;20076;-87
2021/07/02 05:55:45;;;;;;;8.43;4.78;;;;;;;;;;5035282;28;20056;-90
2021/07/02 05:58:13;;;;;;;10.05;4.03;;;;;;;;;;5034032;28;20021;-88
2021/07/02 06:00:39;;;;;;;9.60;6.35;;;;;;;;;;5033686;28;20033;-88
2021/07/02 06:03:04;;;;;;;9.23;4.65;;;;;;;;;;5017257;28;20021;-89
2021/07/02 06:05:31;;;;;;;10.32;3.85;;;;;;;;;;5034903;28;20469;-88
2021/07/02 06:07:56;;;;;;;9.98;6.32;;;;;;;;;;5017500;28;20376;-87
2021/07/02 06:10:24;;;;;;;8.15;4.35;;;;;;;;;;5034969;28;20108;-89
2021/07/02 06:12:50;;;;;;;9.25;3.30;;;;;;;;;;5034786;28;20033;-88
2021/07/02 06:15:17;;;;;;;7.38;3.42;;;;;;;;;;5034903;28;20017;-89
2021/07/02 06:17:45;;;;;;;11.25;5.80;;;;;;;;;;5017003;28;20109;-88
2021/07/02 06:20:13;;;;;;;8.00;4.20;;;;;;;;;;5034880;28;20036;-87
2021/07/02 06:22:39;;;;;;;8.25;4.50;;;;;;;;;;5016832;28;20025;-87
2021/07/02 06:25:07;;;;;;;8.07;3.97;;;;;;;;;;5034815;28;20071;-88
2021/07/02 06:27:33;;;;;;;12.20;4.57;;;;;;;;;;5034555;28;20022;-88
2021/07/02 06:29:58;;;;;;;10.27;4.10;;;;;;;;;;5034429;28;20496;-88
2021/07/02 06:32:24;;;;;;;9.00;7.45;;;;;;;;;;5034466;28;20102;-88
2021/07/02 06:34:50;;;;;;;10.95;6.82;;;;;;;;;;5034578;28;20021;-87
2021/07/02 06:37:16;;;;;;;8.23;6.25;;;;;;;;;;5034448;28;20473;-89
2021/07/02 06:39:42;;;;;;;8.27;3.67;;;;;;;;;;5033529;28;20185;-89
2021/07/02 06:42:07;;;;;;;7.72;4.32;;;;;;;;;;5034334;28;20032;-88
2021/07/02 06:44:33;;;;;;;10.95;4.47;;;;;;;;;;5034087;28;20056;-90
2021/07/02 06:46:59;;;;;;;11.93;6.18;;;;;;;;;;5034247;28;20029;-90
2021/07/02 06:49:26;;;;;;;8.68;4.15;;;;;;;;;;5036390;28;20036;-91
2021/07/02 06:51:52;;;;;;;8.55;5.78;;;;;;;;;;5039789;28;20033;-94
2021/07/02 06:54:17;;;;;;;8.00;4.40;;;;;;;;;;5036657;28;20021;-95
2021/07/02 07:00:27;;;;;;;10.95;4.65;;;;;;;;;;5015269;28;20045;-93
2021/07/02 07:03:40;;;;;;;9.15;3.38;;;;;;;;;;5151710;23;20089;-93
2021/07/02 07:07:01;;;;;;;8.60;3.95;;;;;;;;;;4978280;28;20032;-93
2021/07/02 07:10:53;;;;;;;6.13;3.47;;;;;;;;;;4921235;28;20033;-93
2021/07/02 07:13:58;;;;;;;7.47;4.55;;;;;;;;;;4880277;29;20045;-93
2021/07/02 07:17:10;;;;;;;7.05;3.40;;;;;;;;;;4857020;29;20014;-90
2021/07/02 07:20:35;;;;;;;6.95;3.47;;;;;;;;;;4849782;29;20041;-93
2021/07/02 07:23:04;;;;;;;11.95;3.13;;;;;;;;;;4850990;29;20038;-92
2021/07/02 07:25:53;;;;;;;9.90;7.55;;;;;;;;;;4831964;29;20029;-94
2021/07/02 07:28:39;;;;;;;7.85;3.53;;;;;;;;;;4835451;29;20033;-92
2021/07/02 07:31:10;;;;;;;7.00;3.50;;;;;;;;;;4854786;29;20087;-92
2021/07/02 07:33:42;;;;;;;6.78;5.45;;;;;;;;;;4830912;29;20041;-93
2021/07/02 07:36:10;;;;;;;7.30;3.65;;;;;;;;;;4847797;29;20042;-93
2021/07/02 07:38:36;;;;;;;8.50;5.60;;;;;;;;;;4830321;29;20057;-93
2021/07/02 07:41:01;;;;;;;10.05;4.22;;;;;;;;;;4852083;29;20082;-92
2021/07/02 07:43:52;;;;;;;8.75;7.43;;;;;;;;;;4938294;29;20039;-93
2021/07/02 07:46:29;;;;;;;8.50;3.53;;;;;;;;;;4935717;29;20047;-94
2021/07/02 07:49:06;;;;;;;8.35;3.17;;;;;;;;;;4964498;28;20025;-94
2021/07/02 07:54:05;;;;;;;12.50;3.75;;;;;;;;;;4995740;28;20058;-92
2021/07/02 07:56:37;;;;;;;7.55;3.03;;;;;;;;;;4979174;28;20022;-93
2021/07/02 07:59:33;;;;;;;7.65;3.20;;;;;;;;;;4969568;28;20108;-95
2021/07/02 08:02:14;;;;;;;5.78;3.55;;;;;;;;;;5004844;28;20041;-93
2021/07/02 08:04:46;;;;;;;12.32;6.70;;;;;;;;;;4998281;28;20031;-94
2021/07/02 08:07:15;;;;;;;8.55;6.55;;;;;;;;;;4977401;28;20421;-92
2021/07/02 08:09:41;;;;;;;7.63;5.82;;;;;;;;;;4992848;28;20062;-91
2021/07/02 08:12:10;;;;;;;9.10;5.28;;;;;;;;;;4976534;28;20394;-94
2021/07/02 08:14:44;;;;;;;7.78;3.60;;;;;;;;;;4993961;28;20028;-93
2021/07/02 08:17:10;;;;;;;9.70;6.35;;;;;;;;;;4976586;28;20402;-93
2021/07/02 08:19:38;;;;;;;9.30;4.22;;;;;;;;;;4976454;28;20042;-92
2021/07/02 08:22:07;;;;;;;8.73;6.32;;;;;;;;;;4994698;28;20438;-94
2021/07/02 08:24:35;;;;;;;9.57;6.50;;;;;;;;;;4980162;28;20022;-91
2021/07/02 08:27:05;;;;;;;7.63;4.47;;;;;;;;;;4996446;28;20023;-92
2021/07/02 08:29:31;;;;;;;7.13;3.58;;;;;;;;;;4980167;28;20034;-93
2021/07/02 08:31:56;;;;;;;13.05;6.53;;;;;;;;;;4984829;28;20026;-95
2021/07/02 08:34:29;;;;;;;6.63;4.07;;;;;;;;;;4982524;28;20026;-94
2021/07/02 08:36:55;;;;;;;7.82;3.28;;;;;;;;;;4985108;28;20034;-93
2021/07/02 08:39:20;;;;;;;7.82;6.07;;;;;;;;;;4999071;28;20397;-93
2021/07/02 08:42:05;;;;;;;8.00;6.25;;;;;;;;;;5093910;22;20063;-94
2021/07/02 08:44:37;;;;;;;9.73;6.65;;;;;;;;;;5025229;28;20046;-96
2021/07/02 08:47:08;;;;;;;8.55;3.60;;;;;;;;;;5021581;28;20112;-94
2021/07/02 08:49:36;;;;;;;8.77;5.68;;;;;;;;;;5028570;28;20041;-94
2021/07/02 08:52:08;;;;;;;7.15;3.85;;;;;;;;;;5027660;28;20026;-95
2021/07/02 08:54:34;;;;;;;9.43;5.93;;;;;;;;;;5027244;28;20484;-94
2021/07/02 08:57:01;;;;;;;9.45;5.88;;;;;;;;;;5006568;28;20038;-92
2021/07/02 08:59:29;;;;;;;8.68;5.10;;;;;;;;;;5016458;28;20069;-93
2021/07/02 09:01:55;;;;;;;4.43;2.15;;;;;;;;;;5016027;28;20029;-93
2021/07/02 09:04:35;;;;;;;7.53;4.93;;;;;;;;;;5016295;28;20113;-92
2021/07/02 09:07:11;;;;;;;6.28;3.28;;;;;;;;;;5015696;28;20033;-92
2021/07/02 09:10:01;;;;;;;9.45;4.72;;;;;;;;;;5015601;28;20120;-94
2021/07/02 09:12:35;;;;;;;10.10;5.43;;;;;;;;;;5017901;28;20022;-93
2021/07/02 09:15:09;;;;;;;6.97;3.00;;;;;;;;;;5015886;28;20500;-91
2021/07/02 09:17:37;;;;;;;7.35;3.25;;;;;;;;;;5015458;28;20029;-93
2021/07/02 09:20:13;;;;;;;8.10;4.85;;;;;;;;;;5015725;28;20121;-92
2021/07/02 09:22:40;;;;;;;;;;;;;;;;;;5016088;28;20034;-92
2021/07/02 09:25:21;;;;;;;7.55;2.90;;;;;;;;;;5015567;28;19977;-92
2021/07/02 09:27:47;;;;;;;7.57;4.93;;;;;;;;;;5016704;28;20208;-94
2021/07/02 09:30:18;;;;;;;5.45;2.80;;;;;;;;;;5015109;28;20018;-92
2021/07/02 09:32:50;;;;;;;8.23;4.72;;;;;;;;;;5002683;28;20030;-93
2021/07/02 09:35:18;;;;;;;6.20;4.63;;;;;;;;;;5015390;28;20116;-92
2021/07/02 09:37:51;;;;;;;6.90;4.85;;;;;;;;;;5017511;28;20037;-92
2021/07/02 09:40:29;;;;;;;6.90;5.07;;;;;;;;;;5016184;28;20057;-93
2021/07/02 09:43:01;;;;;;;6.25;3.63;;;;;;;;;;5009809;28;20084;-92
2021/07/02 09:45:27;;;;;;;7.40;5.28;;;;;;;;;;5014591;28;20030;-92
2021/07/02 09:47:55;;;;;;;6.03;4.53;;;;;;;;;;5014621;28;20029;-93
2021/07/02 09:50:24;;;;;;;6.38;4.85;;;;;;;;;;5014512;28;20026;-92
2021/07/02 09:52:53;;;;;;;7.88;2.47;;;;;;;;;;5015134;28;20029;-91
2021/07/02 09:55:27;;;;;;;5.40;2.88;;;;;;;;;;5015186;28;20469;-94
2021/07/02 09:58:09;;;;;;;6.18;2.72;;;;;;;;;;5015331;28;20076;-91
2021/07/02 10:00:38;;;;;;;;;;;;;;;;;;5015580;28;20038;-93
2021/07/02 10:03:06;;;;;;;5.72;4.18;;;;;;;;;;5017318;28;19913;-92
2021/07/02 10:06:07;;;;;;;6.15;2.67;;;;;;;;;;5022492;28;20052;-93
2021/07/02 10:08:36;;;;;;;8.38;3.97;;;;;;;;;;5000555;28;20034;-93
2021/07/02 10:11:12;;;;;;;6.72;2.70;;;;;;;;;;5014100;28;20033;-94
2021/07/02 10:13:43;;;;;;;6.00;5.22;;;;;;;;;;5014465;28;20121;-93
2021/07/02 10:16:11;;;;;;;7.45;4.65;;;;;;;;;;5014292;28;20021;-92
2021/07/02 10:18:57;;;;;;;8.40;3.03;;;;;;;;;;5014366;28;20026;-94
2021/07/02 10:21:24;;;;;;;7.68;5.15;;;;;;;;;;5014280;28;20022;-93
2021/07/02 10:23:54;;;;;;;8.02;3.85;;;;;;;;;;5014997;28;20026;-93
2021/07/02 10:26:20;;;;;;;8.88;5.18;;;;;;;;;;5015084;28;20473;-93
2021/07/02 10:28:46;;;;;;;5.57;2.67;;;;;;;;;;5016044;28;20041;-92
2021/07/02 10:31:20;;;;;;;6.72;3.65;;;;;;;;;;5015972;28;20026;-94
2021/07/02 10:33:49;;;;;;;9.10;5.28;;;;;;;;;;5014861;28;20026;-93
2021/07/02 10:36:22;;;;;;;7.15;5.78;;;;;;;;;;5013817;28;20032;-93
2021/07/02 10:38:50;;;;;;;6.38;3.60;;;;;;;;;;5014409;28;20041;-92
2021/07/02 10:41:26;;;;;;;5.10;2.08;;;;;;;;;;5013990;28;20465;-91
2021/07/02 10:44:03;;;;;;;;;;;;;;;;;;5009988;28;20050;-93
2021/07/02 10:46:29;;;;;;;7.35;3.33;;;;;;;;;;5014600;28;20245;-94
2021/07/02 10:48:56;;;;;;;6.88;2.72;;;;;;;;;;5013782;28;20489;-94
2021/07/02 10:51:39;;;;;;;8.65;4.80;;;;;;;;;;5013805;28;20026;-93
2021/07/02 10:54:25;;;;;;;7.13;2.65;;;;;;;;;;5013578;28;20486;-92
2021/07/02 10:56:56;;;;;;;5.55;2.83;;;;;;;;;;5013850;28;20392;-93
2021/07/02 10:59:43;;;;;;;8.48;2.63;;;;;;;;;;5013767;28;20037;-93
2021/07/02 11:02:09;;;;;;;8.38;4.03;;;;;;;;;;5013605;28;20026;-93
2021/07/02 11:04:57;;;;;;;7.63;4.45;;;;;;;;;;5013390;28;20037;-93
2021/07/02 11:07:23;;;;;;;5.18;2.33;;;;;;;;;;5013609;28;20034;-91
2021/07/02 11:09:48;;;;;;;9.40;3.35;;;;;;;;;;5013618;28;20030;-91
2021/07/02 11:12:30;;;;;;;7.80;3.47;;;;;;;;;;5015958;28;20033;-88
2021/07/02 11:15:01;;;;;;;8.43;5.40;;;;;;;;;;5021786;28;20109;-88
2021/07/02 11:17:30;;;;;;;5.97;2.75;;;;;;;;;;5019748;28;20437;-90
2021/07/02 11:20:08;;;;;;;7.75;3.80;;;;;;;;;;5012665;28;20418;-88
2021/07/02 11:22:40;;;;;;;6.90;3.78;;;;;;;;;;5013938;28;20034;-87
2021/07/02 11:25:10;;;;;;;6.03;2.85;;;;;;;;;;5014014;28;20401;-89
2021/07/02 11:28:12;;;;;;;6.22;3.47;;;;;;;;;;5013970;28;20485;-89
2021/07/02 11:30:44;;;;;;;7.10;3.42;;;;;;;;;;5012604;28;20034;-87
2021/07/02 11:33:12;;;;;;;6.82;4.68;;;;;;;;;;5014434;28;20083;-88
2021/07/02 11:35:40;;;;;;;7.90;5.45;;;;;;;;;;5012520;28;20081;-89
2021/07/02 11:38:17;;;;;;;10.63;4.47;;;;;;;;;;5012562;28;20076;-90
2021/07/02 11:40:55;;;;;;;8.60;4.28;;;;;;;;;;5012427;28;20109;-89
2021/07/02 11:43:37;;;;;;;7.93;3.85;;;;;;;;;;5012907;28;20060;-87
2021/07/02 11:46:06;;;;;;;5.93;2.97;;;;;;;;;;5293189;23;20408;-91
2021/07/02 11:48:48;;;;;;;8.25;4.32;;;;;;;;;;5011824;28;20080;-94
2021/07/02 11:51:19;;;;;;;6.05;4.38;;;;;;;;;;5012359;28;20060;-92
2021/07/02 11:53:50;;;;;;;10.20;3.00;;;;;;;;;;5013546;28;20022;-93
2021/07/02 11:56:24;;;;;;;8.60;4.68;;;;;;;;;;5014656;28;20030;-91
2021/07/02 12:01:16;;;;;;;8.23;4.53;;;;;;;;;;5018210;28;20061;-93
2021/07/02 12:03:52;;;;;;;13.57;4.28;;;;;;;;;;5009860;28;20105;-93
2021/07/02 12:06:26;;;;;;;9.20;5.43;;;;;;;;;;5017736;28;20053;-90
2021/07/02 12:08:58;;;;;;;7.97;4.85;;;;;;;;;;5016798;28;20511;-91
2021/07/02 12:11:27;;;;;;;6.85;4.65;;;;;;;;;;5025459;23;20026;-88
2021/07/02 12:14:00;;;;;;;8.40;4.55;;;;;;;;;;5023846;23;20053;-89
2021/07/02 12:17:06;;;;;;;9.65;5.25;;;;;;;;;;5016125;28;20026;-89
2021/07/02 12:19:39;;;;;;;7.30;4.78;;;;;;;;;;4937464;29;20032;-89
2021/07/02 12:22:15;;;;;;;8.07;6.20;;;;;;;;;;4937638;29;20114;-90
2021/07/02 12:27:33;;;;;;;14.73;5.50;;;;;;;;;;5036597;22;20057;-93
2021/07/02 12:29:59;;;;;;;8.10;6.07;;;;;;;;;;5107103;23;20489;-93
2021/07/02 12:32:29;;;;;;;6.40;4.65;;;;;;;;;;5017123;28;20113;-94
2021/07/02 12:34:55;;;;;;;7.25;4.70;;;;;;;;;;5017682;28;20541;-91
2021/07/02 12:37:26;;;;;;;11.77;5.07;;;;;;;;;;5017641;28;20054;-92
2021/07/02 12:39:57;;;;;;;10.95;4.63;;;;;;;;;;5016355;28;20034;-93
2021/07/02 12:42:46;;;;;;;10.10;5.00;;;;;;;;;;5029935;23;20057;-88
2021/07/02 12:45:14;;;;;;;11.55;6.57;;;;;;;;;;5017832;28;20037;-91
2021/07/02 12:47:41;;;;;;;8.77;4.82;;;;;;;;;;4999444;28;20393;-93
2021/07/02 12:50:17;;;;;;;10.48;6.53;;;;;;;;;;5017257;28;20100;-92
2021/07/02 12:55:38;;;;;;;10.25;7.30;;;;;;;;;;5017701;28;20060;-93
2021/07/02 12:58:04;;;;;;;9.48;6.22;;;;;;;;;;5000908;28;20034;-93
2021/07/02 13:00:32;;;;;;;10.48;6.85;;;;;;;;;;5017158;28;20026;-95
2021/07/02 13:03:04;;;;;;;8.75;5.68;;;;;;;;;;4999658;28;20026;-95
2021/07/02 13:05:38;;;;;;;11.80;7.88;;;;;;;;;;5017219;28;20049;-95
2021/07/02 13:08:11;;;;;;;10.23;5.97;;;;;;;;;;4998220;28;20384;-92
2021/07/02 13:10:48;;;;;;;10.43;6.72;;;;;;;;;;5017052;28;20018;-92
2021/07/02 13:13:33;;;;;;;10.43;5.47;;;;;;;;;;4999715;28;20480;-94
2021/07/02 13:16:02;;;;;;;11.35;6.47;;;;;;;;;;4999163;28;20033;-92
2021/07/02 13:18:34;;;;;;;8.60;6.10;;;;;;;;;;4999339;28;20026;-93
2021/07/02 13:21:09;;;;;;;7.30;5.30;;;;;;;;;;4999755;28;20068;-94
2021/07/02 13:23:38;;;;;;;8.57;6.80;;;;;;;;;;4999497;28;20030;-94
2021/07/02 13:26:03;;;;;;;10.55;7.45;;;;;;;;;;4999179;28;20026;-92
2021/07/02 13:28:31;;;;;;;9.25;7.00;;;;;;;;;;4999235;28;20112;-92
2021/07/02 13:30:57;;;;;;;11.63;7.35;;;;;;;;;;5000145;28;20040;-92
2021/07/02 13:33:23;;;;;;;9.88;7.55;;;;;;;;;;5017224;28;20025;-95
2021/07/02 13:35:48;;;;;;;8.20;6.47;;;;;;;;;;4999237;28;20176;-95
2021/07/02 13:38:16;;;;;;;8.65;6.57;;;;;;;;;;5015509;28;20137;-95
2021/07/02 13:40:52;;;;;;;9.30;5.93;;;;;;;;;;4999256;28;20504;-93
2021/07/02 13:43:23;;;;;;;12.77;6.13;;;;;;;;;;4994534;28;20111;-96
2021/07/02 13:46:03;;;;;;;10.98;6.50;;;;;;;;;;4999323;28;20067;-93
2021/07/02 13:48:31;;;;;;;13.15;7.70;;;;;;;;;;4998978;28;20123;-94
2021/07/02 13:50:58;;;;;;;11.15;5.43;;;;;;;;;;5016413;28;20030;-95
2021/07/02 13:53:25;;;;;;;10.88;7.30;;;;;;;;;;4998773;28;20556;-93
2021/07/02 13:55:52;;;;;;;8.32;6.68;;;;;;;;;;5016164;28;20080;-92
2021/07/02 13:58:19;;;;;;;8.70;7.15;;;;;;;;;;4998397;28;20021;-93
2021/07/02 14:00:46;;;;;;;8.68;5.78;;;;;;;;;;5015816;28;20038;-92
2021/07/02 14:03:13;;;;;;;8.43;5.93;;;;;;;;;;4998755;28;20060;-92
2021/07/02 14:05:40;;;;;;;7.60;5.45;;;;;;;;;;4998116;28;20034;-93
2021/07/02 14:08:08;;;;;;;12.68;5.38;;;;;;;;;;4998080;28;20092;-94
2021/07/02 14:10:34;;;;;;;7.47;5.05;;;;;;;;;;4998439;28;20026;-92
2021/07/02 14:13:01;;;;;;;7.15;5.40;;;;;;;;;;4998324;28;20032;-92
2021/07/02 14:15:27;;;;;;;9.10;4.72;;;;;;;;;;5005412;28;20099;-94
2021/07/02 14:17:54;;;;;;;6.20;4.43;;;;;;;;;;5002559;28;20033;-89
2021/07/02 14:20:20;;;;;;;8.82;5.68;;;;;;;;;;4996604;28;20084;-93
2021/07/02 14:22:46;;;;;;;8.52;5.13;;;;;;;;;;4996761;28;20068;-93
2021/07/02 14:25:15;;;;;;;11.73;5.43;;;;;;;;;;4997501;28;20124;-93
2021/07/02 14:27:42;;;;;;;5.90;4.72;;;;;;;;;;5014960;28;20018;-92
2021/07/02 14:30:09;;;;;;;8.23;5.40;;;;;;;;;;4997430;28;20026;-93
2021/07/02 14:32:35;;;;;;;6.75;4.85;;;;;;;;;;4998121;28;20033;-91
2021/07/02 14:35:01;;;;;;;6.78;4.90;;;;;;;;;;5014467;28;20109;-93
2021/07/02 14:37:27;;;;;;;9.82;4.70;;;;;;;;;;4995432;28;20104;-91
2021/07/02 14:39:53;;;;;;;7.88;5.25;;;;;;;;;;4998316;28;20026;-93
2021/07/02 14:42:19;;;;;;;7.75;5.80;;;;;;;;;;4996492;28;20029;-92
2021/07/02 14:44:46;;;;;;;8.38;5.32;;;;;;;;;;4997036;28;20129;-92
2021/07/02 14:47:12;;;;;;;11.30;5.80;;;;;;;;;;5014430;28;20489;-93
2021/07/02 14:49:38;;;;;;;9.27;5.80;;;;;;;;;;5014466;28;20058;-94
2021/07/02 14:52:04;;;;;;;9.82;5.82;;;;;;;;;;4997828;28;20026;-93
2021/07/02 14:54:29;;;;;;;7.82;5.47;;;;;;;;;;4997361;28;20030;-94
2021/07/02 14:56:55;;;;;;;8.55;6.53;;;;;;;;;;4997844;28;20026;-93
2021/07/02 14:59:21;;;;;;;7.20;5.32;;;;;;;;;;4997716;28;20029;-94
2021/07/02 15:01:47;;;;;;;10.40;6.00;;;;;;;;;;4997710;28;20381;-93
2021/07/02 15:04:18;;;;;;;8.55;5.18;;;;;;;;;;5015782;28;20508;-96
2021/07/02 15:06:44;;;;;;;9.63;5.55;;;;;;;;;;4997619;28;20026;-94
2021/07/02 15:09:10;;;;;;;9.13;5.03;;;;;;;;;;4985812;28;20037;-95
2021/07/02 15:11:35;;;;;;;9.27;5.18;;;;;;;;;;4998479;28;20024;-95
2021/07/02 15:14:03;;;;;;;9.13;5.50;;;;;;;;;;4997477;28;20470;-95
2021/07/02 15:16:30;;;;;;;9.23;3.90;;;;;;;;;;5004541;22;20041;-93
2021/07/02 15:23:02;;;;;;;7.82;6.03;;;;;;;;;;4994974;28;20512;-94
2021/07/02 15:29:02;;;;;;;8.07;4.15;;;;;;;;;;5009533;22;20056;-94
2021/07/02 15:34:24;;;;;;;7.78;3.95;;;;;;;;;;5041400;22;20079;-94
2021/07/02 15:36:50;;;;;;;7.40;3.70;;;;;;;;;;5017908;28;20614;-94
2021/07/02 15:39:16;;;;;;;7.63;4.13;;;;;;;;;;5016197;28;20022;-94